createdAt,value
2019-05-22T00:00:19.689Z,14.94
2019-05-22T00:01:20.122Z,14.89
2019-05-22T00:02:20.548Z,14.87
2019-05-22T00:03:21.059Z,14.94
2019-05-22T00:04:21.492Z,14.92
2019-05-22T00:05:21.908Z,14.94
2019-05-22T00:06:22.407Z,14.94
2019-05-22T00:07:22.842Z,15.05
2019-05-22T00:08:23.347Z,14.99
2019-05-22T00:09:23.767Z,14.94
2019-05-22T00:10:24.261Z,15.00
2019-05-22T00:11:24.690Z,15.05
2019-05-22T00:12:25.200Z,14.99
2019-05-22T00:13:25.661Z,15.00
2019-05-22T00:14:26.150Z,15.05
2019-05-22T00:15:26.574Z,15.02
2019-05-22T00:16:28.242Z,14.97
2019-05-22T00:17:28.777Z,14.92
2019-05-22T00:18:29.270Z,14.96
2019-05-22T00:19:29.731Z,14.90
2019-05-22T00:20:35.206Z,14.87
2019-05-22T00:21:35.633Z,14.82
2019-05-22T00:22:36.239Z,14.86
2019-05-22T00:23:36.685Z,14.85
2019-05-22T00:24:37.175Z,14.92
2019-05-22T00:25:37.588Z,14.87
2019-05-22T00:26:40.043Z,14.87
2019-05-22T00:27:40.461Z,14.92
2019-05-22T00:28:40.908Z,14.89
2019-05-22T00:29:41.347Z,14.93
2019-05-22T00:40:45.792Z,14.92
2019-05-22T00:41:46.228Z,14.78
2019-05-22T00:43:14.057Z,14.85
2019-05-22T00:44:14.928Z,14.81
2019-05-22T00:47:39.803Z,14.79
2019-05-22T00:48:40.236Z,14.87
2019-05-22T00:49:40.687Z,14.81
2019-05-22T00:50:41.127Z,14.81
2019-05-22T00:51:41.661Z,14.85
2019-05-22T00:52:42.099Z,14.90
2019-05-22T00:53:42.529Z,14.86
2019-05-22T00:54:42.975Z,14.92
2019-05-22T00:55:43.420Z,14.78
2019-05-22T00:56:43.847Z,14.85
2019-05-22T00:57:44.275Z,14.87
2019-05-22T00:58:44.713Z,14.87
2019-05-22T00:59:45.198Z,14.90
2019-05-22T01:00:45.643Z,14.87
2019-05-22T01:01:46.116Z,14.89
2019-05-22T01:02:46.548Z,14.87
2019-05-22T01:03:47.015Z,14.85
2019-05-22T01:04:47.462Z,14.89
2019-05-22T01:05:47.892Z,14.85
2019-05-22T01:06:48.316Z,14.85
2019-05-22T01:07:48.736Z,14.79
2019-05-22T01:08:49.160Z,14.82
2019-05-22T01:09:49.601Z,14.85
2019-05-22T01:10:50.028Z,14.81
2019-05-22T01:11:50.452Z,14.78
2019-05-22T01:12:50.962Z,14.73
2019-05-22T01:13:52.530Z,14.78
2019-05-22T01:14:52.973Z,14.77
2019-05-22T01:15:53.397Z,14.74
2019-05-22T01:16:53.823Z,14.79
2019-05-22T01:17:54.246Z,14.90
2019-05-22T01:18:54.670Z,14.82
2019-05-22T01:19:55.122Z,14.81
2019-05-22T01:20:55.558Z,14.73
2019-05-22T01:21:55.978Z,14.74
2019-05-22T01:22:56.397Z,14.71
2019-05-22T01:24:03.450Z,14.82
2019-05-22T01:25:03.906Z,14.68
2019-05-22T01:26:04.328Z,14.71
2019-05-22T01:27:04.797Z,14.73
2019-05-22T01:28:05.247Z,14.71
2019-05-22T01:29:05.674Z,14.81
2019-05-22T01:30:06.116Z,14.79
2019-05-22T01:31:06.541Z,14.68
2019-05-22T01:32:07.040Z,14.71
2019-05-22T01:33:07.464Z,14.78
2019-05-22T01:35:23.365Z,14.62
2019-05-22T01:36:23.797Z,14.73
2019-05-22T01:37:24.228Z,14.68
2019-05-22T01:38:24.739Z,14.79
2019-05-22T01:39:25.171Z,14.81
2019-05-22T01:40:25.714Z,14.74
2019-05-22T01:41:26.144Z,14.68
2019-05-22T01:42:26.607Z,14.71
2019-05-22T01:43:27.037Z,14.74
2019-05-22T01:44:27.546Z,14.78
2019-05-22T01:45:27.999Z,14.74
2019-05-22T01:46:28.489Z,14.78
2019-05-22T01:47:28.921Z,14.70
2019-05-22T01:48:36.387Z,14.73
2019-05-22T01:49:36.887Z,14.78
2019-05-22T01:50:38.381Z,14.74
2019-05-22T01:51:38.817Z,14.77
2019-05-22T01:52:39.282Z,14.68
2019-05-22T01:53:39.719Z,14.74
2019-05-22T01:54:40.214Z,14.82
2019-05-22T01:55:40.667Z,14.78
2019-05-22T01:56:41.146Z,14.77
2019-05-22T01:57:41.584Z,14.74
2019-05-22T01:58:42.083Z,14.71
2019-05-22T01:59:42.506Z,14.68
2019-05-22T02:00:43.069Z,14.71
2019-05-22T02:01:43.574Z,14.71
2019-05-22T02:02:44.057Z,14.66
2019-05-22T02:03:44.501Z,14.68
2019-05-22T02:04:44.929Z,14.67
2019-05-22T02:05:45.390Z,14.70
2019-05-22T02:06:45.836Z,14.66
2019-05-22T02:07:46.266Z,14.58
2019-05-22T02:08:46.759Z,14.71
2019-05-22T02:09:47.183Z,14.68
2019-05-22T02:10:47.726Z,14.67
2019-05-22T02:11:48.156Z,14.66
2019-05-22T02:12:48.630Z,14.55
2019-05-22T02:13:49.061Z,14.63
2019-05-22T02:14:49.561Z,14.63
2019-05-22T02:15:50.015Z,14.66
2019-05-22T02:16:56.995Z,14.63
2019-05-22T02:17:56.899Z,14.67
2019-05-22T02:18:57.374Z,14.61
2019-05-22T02:19:57.791Z,14.66
2019-05-22T02:20:58.343Z,14.61
2019-05-22T02:21:58.815Z,14.61
2019-05-22T02:22:59.346Z,14.61
2019-05-22T02:23:59.766Z,14.61
2019-05-22T02:25:00.258Z,14.55
2019-05-22T02:26:00.705Z,14.67
2019-05-22T02:27:01.186Z,14.58
2019-05-22T02:28:01.620Z,14.66
2019-05-22T02:29:02.127Z,14.63
2019-05-22T02:30:02.562Z,14.61
2019-05-22T02:31:03.097Z,14.62
2019-05-22T02:32:03.529Z,14.48
2019-05-22T02:33:04.038Z,14.58
2019-05-22T02:34:04.512Z,14.61
2019-05-22T02:35:05.037Z,14.59
2019-05-22T02:36:05.521Z,14.58
2019-05-22T02:37:06.083Z,14.56
2019-05-22T02:38:06.521Z,14.52
2019-05-22T02:39:07.007Z,14.61
2019-05-22T02:40:07.450Z,14.59
2019-05-22T02:41:07.985Z,14.53
2019-05-22T02:42:08.444Z,14.52
2019-05-22T02:43:08.978Z,14.51
2019-05-22T02:44:09.396Z,14.49
2019-05-22T02:45:09.942Z,14.48
2019-05-22T02:46:10.438Z,14.43
2019-05-22T02:47:18.941Z,14.44
2019-05-22T02:48:17.357Z,14.53
2019-05-22T02:49:17.835Z,14.44
2019-05-22T02:50:18.265Z,14.49
2019-05-22T02:51:18.803Z,14.40
2019-05-22T02:52:19.237Z,14.41
2019-05-22T02:53:19.702Z,14.38
2019-05-22T02:54:20.135Z,14.49
2019-05-22T02:55:20.674Z,14.41
2019-05-22T02:56:21.167Z,14.38
2019-05-22T02:57:22.694Z,14.49
2019-05-22T02:58:23.116Z,14.52
2019-05-22T02:59:23.630Z,14.49
2019-05-22T03:00:24.051Z,14.45
2019-05-22T03:01:24.603Z,14.52
2019-05-22T03:02:25.031Z,14.38
2019-05-22T03:03:25.506Z,14.45
2019-05-22T03:04:25.944Z,14.43
2019-05-22T03:05:26.505Z,14.37
2019-05-22T03:06:26.968Z,14.44
2019-05-22T03:07:28.499Z,14.33
2019-05-22T03:08:28.930Z,14.37
2019-05-22T03:09:30.458Z,14.33
2019-05-22T03:10:30.883Z,14.31
2019-05-22T03:11:34.985Z,14.31
2019-05-22T03:12:35.746Z,14.38
2019-05-22T03:13:36.323Z,14.26
2019-05-22T03:14:36.750Z,14.36
2019-05-22T03:15:37.257Z,14.37
2019-05-22T03:16:37.689Z,14.36
2019-05-22T03:17:38.200Z,14.40
2019-05-22T03:18:38.643Z,14.30
2019-05-22T03:24:16.053Z,14.31
2019-05-22T03:25:16.493Z,14.28
2019-05-22T03:31:04.543Z,14.30
2019-05-22T03:36:04.956Z,14.26
2019-05-22T03:37:05.403Z,14.26
2019-05-22T03:38:05.853Z,14.30
2019-05-22T03:39:06.278Z,14.25
2019-05-22T03:40:06.709Z,14.25
2019-05-22T03:41:07.128Z,14.23
2019-05-22T03:42:07.613Z,14.25
2019-05-22T03:43:08.053Z,14.36
2019-05-22T03:44:10.596Z,14.33
2019-05-22T03:45:11.019Z,14.40
2019-05-22T03:46:11.535Z,14.25
2019-05-22T03:47:11.966Z,14.33
2019-05-22T03:48:12.504Z,14.31
2019-05-22T03:49:28.204Z,14.37
2019-05-22T03:50:19.358Z,14.34
2019-05-22T03:51:19.859Z,14.38
2019-05-22T03:52:20.282Z,14.33
2019-05-22T03:53:20.837Z,14.36
2019-05-22T03:54:21.263Z,14.25
2019-05-22T03:55:21.733Z,14.28
2019-05-22T03:56:22.162Z,14.34
2019-05-22T03:57:22.662Z,14.40
2019-05-22T03:58:23.111Z,14.38
2019-05-22T03:59:23.595Z,14.26
2019-05-22T04:00:24.019Z,14.25
2019-05-22T04:01:24.558Z,14.28
2019-05-22T04:02:25.021Z,14.28
2019-05-22T04:03:25.499Z,14.25
2019-05-22T04:04:25.919Z,14.26
2019-05-22T04:05:26.408Z,14.28
2019-05-22T04:06:26.842Z,14.20
2019-05-22T04:07:27.335Z,14.13
2019-05-22T04:08:27.774Z,14.15
2019-05-22T04:09:28.276Z,14.19
2019-05-22T04:10:28.706Z,14.11
2019-05-22T04:11:29.308Z,14.11
2019-05-22T04:12:29.727Z,14.13
2019-05-22T04:13:30.291Z,14.18
2019-05-22T04:14:30.734Z,14.18
2019-05-22T04:15:31.181Z,14.13
2019-05-22T04:16:31.600Z,14.13
2019-05-22T04:17:32.124Z,14.16
2019-05-22T04:18:32.567Z,14.15
2019-05-22T04:19:48.814Z,14.22
2019-05-22T04:20:41.511Z,14.19
2019-05-22T04:21:43.093Z,14.19
2019-05-22T04:22:43.514Z,14.19
2019-05-22T04:23:44.986Z,14.15
2019-05-22T04:24:45.450Z,14.18
2019-05-22T04:25:45.982Z,14.18
2019-05-22T04:26:46.410Z,14.12
2019-05-22T04:27:46.936Z,14.13
2019-05-22T04:28:47.383Z,14.20
2019-05-22T04:29:47.854Z,14.16
2019-05-22T04:30:48.286Z,14.15
2019-05-22T04:31:48.801Z,14.07
2019-05-22T04:32:49.244Z,14.13
2019-05-22T04:33:49.764Z,14.04
2019-05-22T04:34:50.215Z,14.05
2019-05-22T04:35:51.700Z,14.05
2019-05-22T04:36:52.197Z,14.03
2019-05-22T04:37:52.725Z,14.05
2019-05-22T04:38:53.173Z,14.05
2019-05-22T04:39:53.761Z,14.01
2019-05-22T04:40:54.209Z,14.03
2019-05-22T04:41:54.697Z,14.07
2019-05-22T04:42:55.119Z,14.01
2019-05-22T04:43:55.684Z,14.05
2019-05-22T04:44:56.110Z,13.97
2019-05-22T04:45:56.573Z,13.97
2019-05-22T04:46:57.003Z,13.95
2019-05-22T04:47:59.553Z,13.95
2019-05-22T04:49:00.002Z,13.97
2019-05-22T04:50:07.349Z,13.93
2019-05-22T04:51:07.932Z,13.94
2019-05-22T04:52:08.389Z,13.91
2019-05-22T04:53:08.832Z,13.91
2019-05-22T04:54:09.354Z,13.91
2019-05-22T04:55:09.795Z,13.80
2019-05-22T04:56:10.357Z,13.83
2019-05-22T04:57:10.796Z,13.75
2019-05-22T04:58:11.302Z,13.76
2019-05-22T04:59:11.816Z,13.83
2019-05-22T05:00:12.348Z,13.79
2019-05-22T05:01:12.790Z,13.85
2019-05-22T05:02:30.205Z,13.78
2019-05-22T05:03:30.658Z,13.73
2019-05-22T05:11:04.306Z,13.89
2019-05-22T05:12:04.731Z,13.87
2019-05-22T05:13:07.249Z,13.86
2019-05-22T05:14:07.708Z,13.86
2019-05-22T05:15:08.138Z,13.95
2019-05-22T05:16:08.580Z,13.89
2019-05-22T05:17:09.014Z,13.94
2019-05-22T05:18:09.443Z,13.86
2019-05-22T05:19:10.012Z,14.01
2019-05-22T05:20:22.150Z,13.93
2019-05-22T05:21:16.866Z,13.98
2019-05-22T05:22:17.280Z,14.00
2019-05-22T05:23:17.700Z,13.93
2019-05-22T05:24:18.308Z,13.98
2019-05-22T05:25:18.798Z,13.97
2019-05-22T05:26:19.230Z,13.97
2019-05-22T05:27:19.655Z,14.08
2019-05-22T05:28:20.080Z,14.12
2019-05-22T05:29:20.526Z,14.05
2019-05-22T05:30:20.958Z,14.03
2019-05-22T05:31:21.502Z,14.05
2019-05-22T05:32:21.930Z,14.08
2019-05-22T05:33:23.461Z,14.08
2019-05-22T05:34:24.210Z,14.18
2019-05-22T05:35:24.625Z,14.13
2019-05-22T05:36:25.051Z,14.12
2019-05-22T05:37:25.540Z,14.08
2019-05-22T05:38:25.958Z,14.08
2019-05-22T05:39:26.406Z,14.18
2019-05-22T05:40:26.846Z,14.13
2019-05-22T05:41:27.274Z,14.12
2019-05-22T05:42:27.695Z,14.22
2019-05-22T05:43:28.138Z,14.22
2019-05-22T05:44:28.797Z,14.16
2019-05-22T05:45:29.229Z,14.23
2019-05-22T05:46:29.662Z,14.20
2019-05-22T05:47:30.085Z,14.28
2019-05-22T05:48:30.514Z,14.25
2019-05-22T05:49:31.225Z,14.33
2019-05-22T05:50:39.418Z,14.25
2019-05-22T05:51:38.091Z,14.20
2019-05-22T05:52:38.598Z,14.30
2019-05-22T05:53:39.031Z,14.26
2019-05-22T05:54:39.546Z,14.30
2019-05-22T05:55:39.991Z,14.40
2019-05-22T05:56:40.521Z,14.30
2019-05-22T05:57:40.943Z,14.40
2019-05-22T05:58:41.544Z,14.38
2019-05-22T05:59:42.092Z,14.41
2019-05-22T06:00:44.658Z,14.43
2019-05-22T06:01:45.242Z,14.38
2019-05-22T06:02:56.054Z,14.45
2019-05-22T06:03:53.183Z,14.48
2019-05-22T06:04:53.663Z,14.53
2019-05-22T06:05:54.091Z,14.53
2019-05-22T06:06:54.515Z,14.37
2019-05-22T06:07:54.936Z,14.45
2019-05-22T06:08:55.392Z,14.41
2019-05-22T06:09:55.874Z,14.48
2019-05-22T06:10:56.321Z,14.38
2019-05-22T06:11:56.759Z,14.48
2019-05-22T06:12:57.186Z,14.43
2019-05-22T06:13:57.607Z,14.44
2019-05-22T06:14:58.066Z,14.53
2019-05-22T06:15:58.488Z,14.55
2019-05-22T06:16:58.911Z,14.59
2019-05-22T06:17:59.351Z,14.59
2019-05-22T06:18:59.845Z,14.56
2019-05-22T06:20:00.366Z,14.61
2019-05-22T06:21:04.330Z,14.58
2019-05-22T06:22:05.120Z,14.63
2019-05-22T06:23:05.602Z,14.67
2019-05-22T06:24:06.068Z,14.62
2019-05-22T06:25:06.523Z,14.73
2019-05-22T06:26:07.064Z,14.77
2019-05-22T06:27:07.615Z,14.79
2019-05-22T06:28:08.054Z,14.82
2019-05-22T06:29:08.492Z,14.82
2019-05-22T06:30:10.056Z,14.81
2019-05-22T06:31:10.494Z,14.93
2019-05-22T06:32:11.046Z,14.87
2019-05-22T06:33:11.582Z,15.00
2019-05-22T06:34:12.073Z,14.97
2019-05-22T06:35:12.549Z,14.94
2019-05-22T06:36:13.069Z,14.94
2019-05-22T06:37:13.583Z,15.07
2019-05-22T06:38:14.023Z,14.94
2019-05-22T06:39:14.447Z,14.96
2019-05-22T06:40:14.919Z,14.93
2019-05-22T06:41:15.353Z,14.93
2019-05-22T06:42:15.785Z,14.92
2019-05-22T06:43:16.245Z,15.00
2019-05-22T06:44:16.678Z,14.96
2019-05-22T06:45:17.223Z,14.99
2019-05-22T06:46:17.664Z,15.04
2019-05-22T06:47:18.097Z,14.99
2019-05-22T06:48:18.531Z,15.04
2019-05-22T06:49:19.044Z,14.97
2019-05-22T06:50:19.480Z,14.93
2019-05-22T06:51:19.954Z,14.90
2019-05-22T06:52:20.412Z,14.93
2019-05-22T06:53:20.838Z,14.86
2019-05-22T06:54:21.288Z,14.90
2019-05-22T06:55:21.723Z,14.85
2019-05-22T06:56:23.864Z,14.71
2019-05-22T06:57:24.363Z,14.82
2019-05-22T06:58:24.797Z,14.82
2019-05-22T06:59:25.221Z,14.81
2019-05-22T07:00:25.637Z,14.78
2019-05-22T07:01:26.082Z,14.82
2019-05-22T07:02:26.509Z,14.73
2019-05-22T07:03:26.933Z,14.77
2019-05-22T07:04:27.452Z,14.74
2019-05-22T07:05:27.884Z,14.66
2019-05-22T07:06:28.409Z,14.81
2019-05-22T07:07:28.826Z,14.81
2019-05-22T07:08:29.310Z,14.74
2019-05-22T07:09:29.740Z,14.73
2019-05-22T07:10:36.712Z,14.67
2019-05-22T07:11:37.190Z,14.70
2019-05-22T07:12:37.632Z,14.67
2019-05-22T07:13:38.058Z,14.62
2019-05-22T07:14:38.580Z,14.58
2019-05-22T07:15:39.046Z,14.62
2019-05-22T07:16:39.559Z,14.66
2019-05-22T07:17:40.058Z,14.58
2019-05-22T07:18:40.544Z,14.52
2019-05-22T07:19:40.969Z,14.59
2019-05-22T07:20:41.514Z,14.61
2019-05-22T07:21:41.979Z,14.61
2019-05-22T07:22:42.527Z,14.61
2019-05-22T07:23:42.965Z,14.68
2019-05-22T07:24:43.399Z,14.53
2019-05-22T07:25:43.844Z,14.63
2019-05-22T07:26:44.298Z,14.56
2019-05-22T07:27:44.733Z,14.63
2019-05-22T07:28:45.174Z,14.61
2019-05-22T07:29:45.604Z,14.59
2019-05-22T07:30:46.069Z,14.59
2019-05-22T07:31:46.593Z,14.61
2019-05-22T07:32:47.036Z,14.63
2019-05-22T07:33:47.486Z,14.55
2019-05-22T07:34:47.957Z,14.55
2019-05-22T07:36:07.843Z,14.59
2019-05-22T07:36:54.801Z,14.58
2019-05-22T07:37:55.233Z,14.68
2019-05-22T07:38:55.656Z,14.73
2019-05-22T07:39:56.107Z,14.71
2019-05-22T07:40:56.612Z,14.61
2019-05-22T07:41:57.096Z,14.67
2019-05-22T07:42:57.600Z,14.70
2019-05-22T07:43:59.083Z,14.68
2019-05-22T07:44:59.566Z,14.71
2019-05-22T07:46:05.004Z,14.67
2019-05-22T07:47:05.475Z,14.63
2019-05-22T07:48:05.916Z,14.67
2019-05-22T07:49:06.355Z,14.77
2019-05-22T07:50:06.888Z,14.71
2019-05-22T07:51:07.380Z,14.74
2019-05-22T07:52:07.858Z,14.77
2019-05-22T07:53:08.288Z,14.78
2019-05-22T07:54:08.719Z,14.79
2019-05-22T07:55:09.165Z,14.73
2019-05-22T07:56:09.694Z,14.66
2019-05-22T07:57:10.204Z,14.74
2019-05-22T07:58:10.673Z,14.73
2019-05-22T07:59:11.141Z,14.71
2019-05-22T08:00:11.602Z,14.70
2019-05-22T08:01:12.027Z,14.67
2019-05-22T08:02:13.485Z,14.68
2019-05-22T08:03:13.910Z,14.71
2019-05-22T08:04:14.339Z,14.66
2019-05-22T08:05:14.775Z,14.68
2019-05-22T08:06:15.326Z,14.67
2019-05-22T08:07:15.797Z,14.63
2019-05-22T08:08:18.759Z,14.67
2019-05-22T08:09:19.398Z,14.70
2019-05-22T08:10:19.846Z,14.67
2019-05-22T08:11:20.283Z,14.71
2019-05-22T08:12:20.758Z,14.70
2019-05-22T08:13:21.193Z,14.68
2019-05-22T08:14:21.632Z,14.71
2019-05-22T08:15:22.080Z,14.78
2019-05-22T08:16:22.509Z,14.73
2019-05-22T08:17:22.978Z,14.77
2019-05-22T08:18:23.403Z,14.73
2019-05-22T08:19:23.848Z,14.68
2019-05-22T08:20:24.301Z,14.81
2019-05-22T08:21:24.749Z,14.85
2019-05-22T08:22:25.211Z,14.93
2019-05-22T08:23:25.637Z,14.85
2019-05-22T08:24:26.062Z,14.89
2019-05-22T08:25:26.496Z,14.90
2019-05-22T08:26:26.918Z,14.89
2019-05-22T08:27:27.412Z,14.90
2019-05-22T08:28:27.888Z,14.92
2019-05-22T08:29:28.357Z,14.90
2019-05-22T08:30:28.783Z,14.97
2019-05-22T08:31:29.226Z,15.02
2019-05-22T08:32:29.701Z,15.05
2019-05-22T08:33:30.165Z,15.07
2019-05-22T08:34:30.622Z,15.15
2019-05-22T08:35:31.058Z,15.04
2019-05-22T08:36:31.488Z,15.15
2019-05-22T08:37:32.060Z,15.12
2019-05-22T08:38:32.497Z,15.23
2019-05-22T08:39:32.937Z,15.30
2019-05-22T08:40:33.380Z,15.23
2019-05-22T08:41:33.817Z,15.26
2019-05-22T08:42:35.624Z,15.39
2019-05-22T08:43:55.890Z,15.37
2019-05-22T08:44:42.629Z,15.44
2019-05-22T08:45:43.050Z,15.41
2019-05-22T08:46:43.490Z,15.37
2019-05-22T08:47:43.945Z,15.36
2019-05-22T08:48:48.008Z,15.44
2019-05-22T08:49:48.829Z,15.57
2019-05-22T08:50:49.271Z,15.48
2019-05-22T08:51:49.711Z,15.55
2019-05-22T08:52:50.298Z,15.60
2019-05-22T08:53:50.817Z,15.65
2019-05-22T08:54:51.266Z,15.73
2019-05-22T08:55:51.706Z,15.76
2019-05-22T08:56:52.150Z,15.80
2019-05-22T08:57:52.942Z,15.78
2019-05-22T08:58:53.402Z,15.84
2019-05-22T08:59:53.842Z,15.91
2019-05-22T09:00:54.299Z,15.92
2019-05-22T09:01:54.722Z,15.81
2019-05-22T09:02:55.223Z,15.83
2019-05-22T09:03:55.682Z,15.80
2019-05-22T09:04:56.111Z,15.90
2019-05-22T09:05:56.569Z,15.90
2019-05-22T09:06:57.008Z,15.84
2019-05-22T09:07:57.482Z,15.91
2019-05-22T09:08:57.941Z,15.85
2019-05-22T09:09:58.380Z,15.94
2019-05-22T09:10:58.833Z,15.98
2019-05-22T09:11:59.309Z,15.99
2019-05-22T09:12:59.811Z,16.06
2019-05-22T09:14:00.693Z,16.09
2019-05-22T09:15:01.129Z,16.21
2019-05-22T09:16:02.066Z,16.21
2019-05-22T09:17:02.665Z,16.26
2019-05-22T09:18:03.099Z,16.29
2019-05-22T09:19:03.573Z,16.24
2019-05-22T09:20:04.017Z,16.25
2019-05-22T09:21:04.487Z,16.25
2019-05-22T09:22:04.927Z,16.22
2019-05-22T09:23:05.435Z,16.22
2019-05-22T09:24:05.921Z,16.28
2019-05-22T09:25:06.519Z,16.31
2019-05-22T09:26:07.061Z,16.41
2019-05-22T09:27:07.506Z,16.37
2019-05-22T09:28:07.941Z,16.24
2019-05-22T09:29:08.410Z,16.32
2019-05-22T09:30:08.852Z,16.39
2019-05-22T09:31:09.295Z,16.46
2019-05-22T09:32:09.852Z,16.51
2019-05-22T09:33:10.389Z,16.49
2019-05-22T09:34:10.924Z,16.50
2019-05-22T09:35:12.451Z,16.61
2019-05-22T09:36:12.898Z,16.50
2019-05-22T09:37:13.326Z,16.64
2019-05-22T09:38:13.780Z,16.72
2019-05-22T09:39:14.229Z,16.73
2019-05-22T09:40:14.666Z,16.86
2019-05-22T09:41:15.102Z,16.82
2019-05-22T09:42:15.590Z,16.84
2019-05-22T09:43:16.064Z,16.95
2019-05-22T09:44:16.537Z,16.92
2019-05-22T09:45:16.996Z,16.92
2019-05-22T09:46:17.430Z,16.98
2019-05-22T09:47:17.870Z,17.02
2019-05-22T09:48:18.303Z,17.19
2019-05-22T09:49:18.861Z,17.30
2019-05-22T09:50:19.288Z,17.19
2019-05-22T09:51:19.814Z,17.28
2019-05-22T09:52:20.241Z,17.28
2019-05-22T09:53:20.671Z,17.32
2019-05-22T09:54:21.131Z,17.31
2019-05-22T09:55:21.619Z,17.39
2019-05-22T09:56:22.268Z,17.41
2019-05-22T09:57:22.722Z,17.41
2019-05-22T09:58:23.149Z,17.46
2019-05-22T09:59:23.637Z,17.46
2019-05-22T10:00:24.073Z,17.46
2019-05-22T10:01:24.498Z,17.47
2019-05-22T10:02:24.978Z,17.53
2019-05-22T10:03:25.427Z,17.63
2019-05-22T10:04:25.971Z,17.82
2019-05-22T10:05:26.414Z,17.86
2019-05-22T10:06:26.932Z,17.98
2019-05-22T10:07:27.383Z,17.95
2019-05-22T10:08:27.814Z,18.03
2019-05-22T10:09:28.285Z,18.03
2019-05-22T10:10:29.831Z,17.98
2019-05-22T10:11:30.256Z,17.90
2019-05-22T10:12:30.722Z,17.90
2019-05-22T10:13:31.251Z,17.93
2019-05-22T10:14:31.773Z,17.91
2019-05-22T10:15:32.446Z,17.95
2019-05-22T10:16:32.889Z,18.09
2019-05-22T10:17:33.464Z,18.15
2019-05-22T10:18:33.897Z,18.18
2019-05-22T10:19:34.428Z,18.27
2019-05-22T10:20:34.878Z,18.42
2019-05-22T10:21:35.430Z,18.43
2019-05-22T10:22:35.874Z,18.30
2019-05-22T10:23:36.467Z,18.34
2019-05-22T10:24:37.026Z,18.27
2019-05-22T10:25:37.607Z,18.18
2019-05-22T10:26:38.036Z,18.19
2019-05-22T10:27:40.589Z,18.23
2019-05-22T10:28:41.060Z,18.03
2019-05-22T10:29:41.672Z,17.94
2019-05-22T10:30:42.126Z,18.05
2019-05-22T10:31:42.595Z,18.02
2019-05-22T10:32:43.026Z,17.97
2019-05-22T10:33:43.455Z,17.93
2019-05-22T10:34:43.963Z,18.00
2019-05-22T10:35:44.562Z,17.98
2019-05-22T10:36:45.002Z,17.94
2019-05-22T10:37:47.543Z,18.03
2019-05-22T10:38:48.014Z,18.36
2019-05-22T10:39:48.596Z,18.36
2019-05-22T10:40:49.034Z,18.43
2019-05-22T10:41:49.477Z,18.52
2019-05-22T10:42:50.039Z,18.57
2019-05-22T10:43:50.516Z,18.71
2019-05-22T10:44:55.924Z,18.68
2019-05-22T10:45:56.364Z,18.52
2019-05-22T10:46:56.788Z,18.41
2019-05-22T10:47:57.233Z,18.52
2019-05-22T10:48:57.683Z,18.43
2019-05-22T10:49:58.147Z,18.45
2019-05-22T10:50:58.574Z,18.71
2019-05-22T10:51:59.002Z,18.74
2019-05-22T10:52:59.514Z,18.74
2019-05-22T10:53:59.954Z,18.76
2019-05-22T10:55:00.427Z,18.73
2019-05-22T10:56:00.884Z,18.98
2019-05-22T10:57:01.377Z,18.86
2019-05-22T10:58:01.794Z,19.04
2019-05-22T10:59:02.379Z,19.00
2019-05-22T11:00:02.846Z,19.04
2019-05-22T11:01:03.276Z,19.16
2019-05-22T11:02:03.703Z,19.17
2019-05-22T11:03:04.150Z,19.07
2019-05-22T11:04:04.581Z,19.01
2019-05-22T11:05:05.055Z,19.01
2019-05-22T11:06:07.673Z,19.16
2019-05-22T11:07:08.440Z,19.16
2019-05-22T11:08:08.894Z,19.07
2019-05-22T11:09:09.345Z,18.98
2019-05-22T11:10:09.802Z,19.00
2019-05-22T11:11:10.360Z,19.16
2019-05-22T11:12:10.838Z,19.17
2019-05-22T11:13:11.315Z,19.24
2019-05-22T11:14:11.751Z,19.15
2019-05-22T11:15:12.286Z,19.24
2019-05-22T11:16:12.733Z,19.30
2019-05-22T11:17:13.191Z,19.15
2019-05-22T11:18:13.617Z,19.09
2019-05-22T11:19:14.127Z,19.00
2019-05-22T11:20:14.581Z,19.00
2019-05-22T11:21:15.069Z,19.01
2019-05-22T11:22:15.509Z,19.24
2019-05-22T11:23:16.047Z,19.37
2019-05-22T11:24:16.469Z,19.32
2019-05-22T11:25:16.917Z,19.17
2019-05-22T11:26:17.346Z,19.32
2019-05-22T11:27:17.780Z,19.30
2019-05-22T11:28:18.229Z,19.32
2019-05-22T11:29:18.669Z,19.20
2019-05-22T11:30:19.133Z,19.32
2019-05-22T11:31:19.574Z,19.52
2019-05-22T11:32:20.020Z,19.71
2019-05-22T11:33:20.442Z,19.89
2019-05-22T11:34:20.939Z,19.72
2019-05-22T11:35:21.535Z,19.64
2019-05-22T11:36:21.971Z,19.63
2019-05-22T11:37:23.412Z,19.63
2019-05-22T11:38:23.905Z,19.66
2019-05-22T11:39:38.071Z,19.81
2019-05-22T11:40:30.763Z,19.77
2019-05-22T11:41:31.192Z,19.96
2019-05-22T11:42:31.628Z,19.92
2019-05-22T11:43:32.058Z,20.14
2019-05-22T11:44:32.483Z,20.11
2019-05-22T11:45:33.941Z,20.15
2019-05-22T11:46:34.370Z,20.14
2019-05-22T11:47:36.815Z,20.18
2019-05-22T11:48:37.244Z,20.26
2019-05-22T11:49:37.739Z,20.22
2019-05-22T11:50:38.217Z,20.36
2019-05-22T11:51:38.652Z,20.36
2019-05-22T11:52:39.080Z,20.24
2019-05-22T11:53:44.499Z,20.33
2019-05-22T11:54:44.931Z,20.48
2019-05-22T11:55:46.675Z,20.53
2019-05-22T11:56:47.157Z,20.70
2019-05-22T11:57:48.596Z,20.74
2019-05-22T11:58:49.025Z,20.82
2019-05-22T11:59:49.473Z,20.77
2019-05-22T12:00:49.937Z,21.03
2019-05-22T12:01:52.375Z,21.25
2019-05-22T12:02:52.805Z,21.04
2019-05-22T12:03:53.247Z,20.86
2019-05-22T12:04:53.687Z,20.55
2019-05-22T12:05:54.147Z,20.52
2019-05-22T12:06:54.589Z,20.52
2019-05-22T12:07:55.020Z,20.64
2019-05-22T12:08:55.540Z,20.85
2019-05-22T12:09:55.971Z,21.04
2019-05-22T12:10:56.588Z,21.35
2019-05-22T12:11:57.071Z,21.69
2019-05-22T12:12:57.521Z,22.14
2019-05-22T12:13:57.949Z,22.26
2019-05-22T12:14:58.442Z,22.68
2019-05-22T12:16:04.185Z,23.06
2019-05-22T12:17:04.619Z,23.14
2019-05-22T12:18:28.066Z,23.49
2019-05-22T12:19:28.492Z,23.69
2019-05-22T12:20:36.668Z,23.84
2019-05-22T12:21:37.116Z,24.03
2019-05-22T12:22:38.548Z,24.25
2019-05-22T12:23:38.973Z,24.48
2019-05-22T12:24:39.439Z,24.44
2019-05-22T12:25:39.871Z,24.26
2019-05-22T12:26:40.333Z,24.55
2019-05-22T12:27:40.768Z,24.82
2019-05-22T12:28:42.126Z,24.99
2019-05-22T12:29:42.563Z,25.22
2019-05-22T12:30:42.993Z,25.04
2019-05-22T12:31:43.493Z,24.97
2019-05-22T12:32:44.081Z,25.19
2019-05-22T12:33:49.477Z,25.37
2019-05-22T12:34:50.040Z,25.48
2019-05-22T12:35:50.559Z,25.58
2019-05-22T12:36:51.609Z,25.40
2019-05-22T12:37:52.098Z,25.36
2019-05-22T12:38:52.540Z,25.56
2019-05-22T12:39:53.053Z,25.70
2019-05-22T12:40:53.486Z,25.86
2019-05-22T12:41:53.970Z,25.41
2019-05-22T12:42:54.414Z,25.00
2019-05-22T12:43:54.833Z,24.66
2019-05-22T12:44:55.288Z,24.37
2019-05-22T12:45:55.725Z,24.03
2019-05-22T12:46:56.304Z,23.95
2019-05-22T12:47:56.736Z,24.14
2019-05-22T12:48:57.180Z,24.10
2019-05-22T12:49:57.605Z,23.91
2019-05-22T12:50:58.028Z,23.69
2019-05-22T12:51:58.470Z,23.32
2019-05-22T12:52:58.904Z,22.91
2019-05-22T12:53:59.322Z,22.71
2019-05-22T12:54:59.752Z,23.04
2019-05-22T12:56:00.189Z,23.32
2019-05-22T12:57:00.629Z,23.70
2019-05-22T12:58:01.059Z,23.96
2019-05-22T12:59:02.524Z,24.32
2019-05-22T13:00:03.239Z,24.62
2019-05-22T13:01:03.706Z,24.31
2019-05-22T13:02:04.156Z,24.46
2019-05-22T13:03:04.590Z,24.48
2019-05-22T13:04:05.022Z,24.14
2019-05-22T13:05:05.450Z,23.85
2019-05-22T13:06:05.874Z,23.69
2019-05-22T13:07:06.382Z,23.95
2019-05-22T13:08:06.808Z,24.21
2019-05-22T13:09:07.245Z,24.69
2019-05-22T13:10:07.670Z,24.96
2019-05-22T13:11:09.165Z,25.39
2019-05-22T13:12:09.610Z,25.70
2019-05-22T13:13:10.039Z,25.78
2019-05-22T13:14:10.489Z,25.80
2019-05-22T13:15:11.188Z,26.04
2019-05-22T13:16:11.743Z,26.22
2019-05-22T13:17:12.260Z,26.36
2019-05-22T13:18:12.680Z,26.27
2019-05-22T13:19:13.107Z,25.92
2019-05-22T13:20:13.639Z,26.11
2019-05-22T13:21:14.074Z,26.18
2019-05-22T13:22:14.537Z,26.23
2019-05-22T13:23:14.982Z,26.37
2019-05-22T13:24:15.518Z,26.61
2019-05-22T13:25:16.967Z,26.83
2019-05-22T13:26:17.411Z,27.07
2019-05-22T13:27:17.897Z,26.96
2019-05-22T13:28:18.332Z,26.74
2019-05-22T13:29:18.775Z,26.73
2019-05-22T13:30:21.151Z,26.30
2019-05-22T13:31:21.579Z,25.85
2019-05-22T13:32:22.062Z,25.44
2019-05-22T13:33:22.566Z,25.21
2019-05-22T13:34:23.053Z,24.85
2019-05-22T13:35:23.474Z,24.61
2019-05-22T13:36:23.945Z,24.88